sensor_id;sensor_type;location;lat;lon;timestamp;temperature;humidity
69436;SHT31;56625;54.322;18.582;2023-05-13T00:01:18;9.75;70.50
69436;SHT31;56625;54.322;18.582;2023-05-13T00:03:46;9.72;70.50
69436;SHT31;56625;54.322;18.582;2023-05-13T00:06:14;9.72;70.58
69436;SHT31;56625;54.322;18.582;2023-05-13T00:08:42;9.70;70.82
69436;SHT31;56625;54.322;18.582;2023-05-13T00:11:10;9.68;71.24
69436;SHT31;56625;54.322;18.582;2023-05-13T00:13:38;9.67;71.24
69436;SHT31;56625;54.322;18.582;2023-05-13T00:16:05;9.64;71.27
69436;SHT31;56625;54.322;18.582;2023-05-13T00:18:33;9.59;71.33
69436;SHT31;56625;54.322;18.582;2023-05-13T00:21:01;9.53;71.51
69436;SHT31;56625;54.322;18.582;2023-05-13T00:23:29;9.49;71.50
69436;SHT31;56625;54.322;18.582;2023-05-13T00:25:57;9.47;71.63
69436;SHT31;56625;54.322;18.582;2023-05-13T00:28:26;9.41;71.90
69436;SHT31;56625;54.322;18.582;2023-05-13T00:30:54;9.36;72.24
69436;SHT31;56625;54.322;18.582;2023-05-13T00:33:22;9.35;72.30
69436;SHT31;56625;54.322;18.582;2023-05-13T00:35:49;9.35;72.28
69436;SHT31;56625;54.322;18.582;2023-05-13T00:38:17;9.35;72.28
69436;SHT31;56625;54.322;18.582;2023-05-13T00:40:45;9.34;72.40
69436;SHT31;56625;54.322;18.582;2023-05-13T00:43:15;9.32;72.60
69436;SHT31;56625;54.322;18.582;2023-05-13T00:45:43;9.30;72.84
69436;SHT31;56625;54.322;18.582;2023-05-13T00:48:11;9.30;72.69
69436;SHT31;56625;54.322;18.582;2023-05-13T00:50:39;9.27;72.70
69436;SHT31;56625;54.322;18.582;2023-05-13T00:53:11;9.23;72.91
69436;SHT31;56625;54.322;18.582;2023-05-13T00:55:40;9.20;72.95
69436;SHT31;56625;54.322;18.582;2023-05-13T00:58:12;9.18;72.90
69436;SHT31;56625;54.322;18.582;2023-05-13T01:00:45;9.15;72.86
69436;SHT31;56625;54.322;18.582;2023-05-13T01:03:24;9.11;72.96
69436;SHT31;56625;54.322;18.582;2023-05-13T01:11:41;9.07;73.42
69436;SHT31;56625;54.322;18.582;2023-05-13T01:14:13;9.03;73.24
69436;SHT31;56625;54.322;18.582;2023-05-13T01:16:52;9.01;73.09
69436;SHT31;56625;54.322;18.582;2023-05-13T01:19:59;8.92;73.28
69436;SHT31;56625;54.322;18.582;2023-05-13T01:22:30;8.85;73.47
69436;SHT31;56625;54.322;18.582;2023-05-13T01:24:58;8.83;73.91
69436;SHT31;56625;54.322;18.582;2023-05-13T01:27:26;8.82;74.02
69436;SHT31;56625;54.322;18.582;2023-05-13T01:29:54;8.82;74.18
69436;SHT31;56625;54.322;18.582;2023-05-13T01:32:23;8.80;73.95
69436;SHT31;56625;54.322;18.582;2023-05-13T01:34:52;8.77;73.83
69436;SHT31;56625;54.322;18.582;2023-05-13T01:37:22;8.73;73.80
69436;SHT31;56625;54.322;18.582;2023-05-13T01:39:50;8.71;73.84
69436;SHT31;56625;54.322;18.582;2023-05-13T01:42:18;8.66;74.18
69436;SHT31;56625;54.322;18.582;2023-05-13T01:44:46;8.63;74.40
69436;SHT31;56625;54.322;18.582;2023-05-13T01:47:14;8.58;74.46
69436;SHT31;56625;54.322;18.582;2023-05-13T01:49:42;8.52;74.62
69436;SHT31;56625;54.322;18.582;2023-05-13T01:52:10;8.53;74.68
69436;SHT31;56625;54.322;18.582;2023-05-13T01:54:37;8.53;74.50
69436;SHT31;56625;54.322;18.582;2023-05-13T01:57:05;8.52;74.59
69436;SHT31;56625;54.322;18.582;2023-05-13T01:59:33;8.52;74.58
69436;SHT31;56625;54.322;18.582;2023-05-13T02:02:01;8.53;74.63
69436;SHT31;56625;54.322;18.582;2023-05-13T02:04:30;8.55;74.63
69436;SHT31;56625;54.322;18.582;2023-05-13T02:06:58;8.59;74.54
69436;SHT31;56625;54.322;18.582;2023-05-13T02:09:26;8.58;74.51
69436;SHT31;56625;54.322;18.582;2023-05-13T02:11:54;8.60;74.49
69436;SHT31;56625;54.322;18.582;2023-05-13T02:14:21;8.62;74.38
69436;SHT31;56625;54.322;18.582;2023-05-13T02:16:49;8.63;74.35
69436;SHT31;56625;54.322;18.582;2023-05-13T02:19:17;8.61;74.23
69436;SHT31;56625;54.322;18.582;2023-05-13T02:21:46;8.58;74.12
69436;SHT31;56625;54.322;18.582;2023-05-13T02:24:14;8.56;74.16
69436;SHT31;56625;54.322;18.582;2023-05-13T02:26:41;8.54;74.22
69436;SHT31;56625;54.322;18.582;2023-05-13T02:29:11;8.51;74.35
69436;SHT31;56625;54.322;18.582;2023-05-13T02:31:40;8.50;74.32
69436;SHT31;56625;54.322;18.582;2023-05-13T02:34:09;8.45;74.60
69436;SHT31;56625;54.322;18.582;2023-05-13T02:36:37;8.45;74.79
69436;SHT31;56625;54.322;18.582;2023-05-13T02:39:05;8.45;74.84
69436;SHT31;56625;54.322;18.582;2023-05-13T02:41:33;8.45;74.84
69436;SHT31;56625;54.322;18.582;2023-05-13T02:44:01;8.44;74.75
69436;SHT31;56625;54.322;18.582;2023-05-13T02:46:29;8.40;74.60
69436;SHT31;56625;54.322;18.582;2023-05-13T02:48:57;8.38;74.80
69436;SHT31;56625;54.322;18.582;2023-05-13T02:51:26;8.40;75.04
69436;SHT31;56625;54.322;18.582;2023-05-13T02:53:53;8.45;75.20
69436;SHT31;56625;54.322;18.582;2023-05-13T02:56:21;8.50;74.82
69436;SHT31;56625;54.322;18.582;2023-05-13T02:58:49;8.47;74.69
69436;SHT31;56625;54.322;18.582;2023-05-13T03:01:17;8.40;74.77
69436;SHT31;56625;54.322;18.582;2023-05-13T03:03:45;8.35;74.89
69436;SHT31;56625;54.322;18.582;2023-05-13T03:06:13;8.34;75.03
69436;SHT31;56625;54.322;18.582;2023-05-13T03:08:41;8.38;75.12
69436;SHT31;56625;54.322;18.582;2023-05-13T03:11:09;8.35;75.15
69436;SHT31;56625;54.322;18.582;2023-05-13T03:13:37;8.35;75.07
69436;SHT31;56625;54.322;18.582;2023-05-13T03:16:05;8.35;75.06
69436;SHT31;56625;54.322;18.582;2023-05-13T03:18:33;8.35;75.10
69436;SHT31;56625;54.322;18.582;2023-05-13T03:21:02;8.36;75.08
69436;SHT31;56625;54.322;18.582;2023-05-13T03:23:31;8.39;74.99
69436;SHT31;56625;54.322;18.582;2023-05-13T03:25:59;8.42;74.81
69436;SHT31;56625;54.322;18.582;2023-05-13T03:28:28;8.46;74.70
69436;SHT31;56625;54.322;18.582;2023-05-13T03:30:56;8.55;74.67
69436;SHT31;56625;54.322;18.582;2023-05-13T03:33:24;8.72;74.46
69436;SHT31;56625;54.322;18.582;2023-05-13T03:35:52;8.89;74.14
69436;SHT31;56625;54.322;18.582;2023-05-13T03:38:19;9.10;73.65
69436;SHT31;56625;54.322;18.582;2023-05-13T03:40:47;9.36;73.10
69436;SHT31;56625;54.322;18.582;2023-05-13T03:43:15;9.68;72.44
69436;SHT31;56625;54.322;18.582;2023-05-13T03:45:43;10.01;71.39
69436;SHT31;56625;54.322;18.582;2023-05-13T03:48:14;10.28;70.48
69436;SHT31;56625;54.322;18.582;2023-05-13T03:50:42;10.51;69.75
69436;SHT31;56625;54.322;18.582;2023-05-13T03:53:10;10.71;69.10
69436;SHT31;56625;54.322;18.582;2023-05-13T03:55:38;10.91;68.41
69436;SHT31;56625;54.322;18.582;2023-05-13T03:58:13;11.12;67.59
69436;SHT31;56625;54.322;18.582;2023-05-13T04:00:42;11.30;66.95
69436;SHT31;56625;54.322;18.582;2023-05-13T04:03:14;11.47;66.72
69436;SHT31;56625;54.322;18.582;2023-05-13T04:05:46;11.68;66.17
69436;SHT31;56625;54.322;18.582;2023-05-13T04:08:15;11.84;65.50
69436;SHT31;56625;54.322;18.582;2023-05-13T04:10:43;11.97;64.64
69436;SHT31;56625;54.322;18.582;2023-05-13T04:13:11;12.19;64.38
69436;SHT31;56625;54.322;18.582;2023-05-13T04:15:39;12.32;64.08
69436;SHT31;56625;54.322;18.582;2023-05-13T04:18:07;12.40;64.02
69436;SHT31;56625;54.322;18.582;2023-05-13T04:20:36;12.52;63.83
69436;SHT31;56625;54.322;18.582;2023-05-13T04:23:06;12.66;63.50
69436;SHT31;56625;54.322;18.582;2023-05-13T04:25:34;12.82;63.37
69436;SHT31;56625;54.322;18.582;2023-05-13T04:28:05;13.00;63.07
69436;SHT31;56625;54.322;18.582;2023-05-13T04:30:34;13.18;62.44
69436;SHT31;56625;54.322;18.582;2023-05-13T04:33:02;13.29;62.27
69436;SHT31;56625;54.322;18.582;2023-05-13T04:35:31;13.45;62.19
69436;SHT31;56625;54.322;18.582;2023-05-13T04:37:58;13.62;61.80
69436;SHT31;56625;54.322;18.582;2023-05-13T04:40:26;13.79;61.65
69436;SHT31;56625;54.322;18.582;2023-05-13T04:42:54;14.03;61.54
69436;SHT31;56625;54.322;18.582;2023-05-13T04:45:22;14.28;60.93
69436;SHT31;56625;54.322;18.582;2023-05-13T04:47:52;14.48;60.44
69436;SHT31;56625;54.322;18.582;2023-05-13T04:50:24;14.68;60.53
69436;SHT31;56625;54.322;18.582;2023-05-13T04:52:53;15.08;60.55
69436;SHT31;56625;54.322;18.582;2023-05-13T04:55:23;15.51;59.23
69436;SHT31;56625;54.322;18.582;2023-05-13T04:57:54;15.70;58.71
69436;SHT31;56625;54.322;18.582;2023-05-13T05:00:22;16.00;58.63
69436;SHT31;56625;54.322;18.582;2023-05-13T05:02:50;16.31;58.09
69436;SHT31;56625;54.322;18.582;2023-05-13T05:05:18;16.64;57.52
69436;SHT31;56625;54.322;18.582;2023-05-13T05:07:46;17.09;56.66
69436;SHT31;56625;54.322;18.582;2023-05-13T05:10:14;17.39;56.13
69436;SHT31;56625;54.322;18.582;2023-05-13T05:12:42;17.73;55.87
69436;SHT31;56625;54.322;18.582;2023-05-13T05:15:09;18.15;54.81
69436;SHT31;56625;54.322;18.582;2023-05-13T05:17:42;18.36;54.11
69436;SHT31;56625;54.322;18.582;2023-05-13T05:20:11;18.80;53.42
69436;SHT31;56625;54.322;18.582;2023-05-13T05:22:40;19.01;52.58
69436;SHT31;56625;54.322;18.582;2023-05-13T05:25:09;19.32;51.28
69436;SHT31;56625;54.322;18.582;2023-05-13T05:27:38;19.36;51.23
69436;SHT31;56625;54.322;18.582;2023-05-13T05:30:07;19.58;50.49
69436;SHT31;56625;54.322;18.582;2023-05-13T05:32:37;19.76;49.93
69436;SHT31;56625;54.322;18.582;2023-05-13T05:35:05;19.85;49.42
69436;SHT31;56625;54.322;18.582;2023-05-13T05:37:34;19.85;48.79
69436;SHT31;56625;54.322;18.582;2023-05-13T05:40:03;19.88;48.55
69436;SHT31;56625;54.322;18.582;2023-05-13T05:42:31;19.85;48.11
69436;SHT31;56625;54.322;18.582;2023-05-13T05:44:59;19.83;48.37
69436;SHT31;56625;54.322;18.582;2023-05-13T05:47:27;19.78;47.18
69436;SHT31;56625;54.322;18.582;2023-05-13T05:49:55;19.67;46.54
69436;SHT31;56625;54.322;18.582;2023-05-13T05:52:23;19.54;46.51
69436;SHT31;56625;54.322;18.582;2023-05-13T05:54:51;19.42;46.65
69436;SHT31;56625;54.322;18.582;2023-05-13T05:57:19;19.31;45.84
69436;SHT31;56625;54.322;18.582;2023-05-13T05:59:47;19.19;44.88
69436;SHT31;56625;54.322;18.582;2023-05-13T06:02:15;19.04;44.67
69436;SHT31;56625;54.322;18.582;2023-05-13T06:04:43;18.94;45.66
69436;SHT31;56625;54.322;18.582;2023-05-13T06:07:11;18.92;45.57
69436;SHT31;56625;54.322;18.582;2023-05-13T06:09:39;18.90;46.09
69436;SHT31;56625;54.322;18.582;2023-05-13T06:12:07;18.94;46.26
69436;SHT31;56625;54.322;18.582;2023-05-13T06:14:35;18.89;45.80
69436;SHT31;56625;54.322;18.582;2023-05-13T06:17:03;18.82;45.77
69436;SHT31;56625;54.322;18.582;2023-05-13T06:19:32;18.77;46.34
69436;SHT31;56625;54.322;18.582;2023-05-13T06:22:00;18.79;46.43
69436;SHT31;56625;54.322;18.582;2023-05-13T06:24:30;18.84;45.25
69436;SHT31;56625;54.322;18.582;2023-05-13T06:26:58;18.86;43.93
69436;SHT31;56625;54.322;18.582;2023-05-13T06:29:26;18.88;43.20
69436;SHT31;56625;54.322;18.582;2023-05-13T06:31:55;18.87;43.39
69436;SHT31;56625;54.322;18.582;2023-05-13T06:34:23;18.91;42.70
69436;SHT31;56625;54.322;18.582;2023-05-13T06:36:51;18.93;42.33
69436;SHT31;56625;54.322;18.582;2023-05-13T06:39:19;18.96;42.85
69436;SHT31;56625;54.322;18.582;2023-05-13T06:41:47;19.03;42.93
69436;SHT31;56625;54.322;18.582;2023-05-13T06:44:15;19.07;42.39
69436;SHT31;56625;54.322;18.582;2023-05-13T06:46:43;19.11;41.96
69436;SHT31;56625;54.322;18.582;2023-05-13T06:49:10;19.15;41.50
69436;SHT31;56625;54.322;18.582;2023-05-13T06:51:38;19.22;41.37
69436;SHT31;56625;54.322;18.582;2023-05-13T06:54:06;19.27;41.63
69436;SHT31;56625;54.322;18.582;2023-05-13T06:56:34;19.37;41.97
69436;SHT31;56625;54.322;18.582;2023-05-13T06:59:01;19.45;41.95
69436;SHT31;56625;54.322;18.582;2023-05-13T07:01:29;19.47;41.16
69436;SHT31;56625;54.322;18.582;2023-05-13T07:03:57;19.48;41.98
69436;SHT31;56625;54.322;18.582;2023-05-13T07:06:25;19.56;41.78
69436;SHT31;56625;54.322;18.582;2023-05-13T07:08:53;19.63;41.56
69436;SHT31;56625;54.322;18.582;2023-05-13T07:11:20;19.63;41.36
69436;SHT31;56625;54.322;18.582;2023-05-13T07:13:49;19.65;41.46
69436;SHT31;56625;54.322;18.582;2023-05-13T07:16:16;19.80;41.52
69436;SHT31;56625;54.322;18.582;2023-05-13T07:18:44;19.95;41.44
69436;SHT31;56625;54.322;18.582;2023-05-13T07:21:12;20.09;40.76
69436;SHT31;56625;54.322;18.582;2023-05-13T07:23:41;20.21;40.16
69436;SHT31;56625;54.322;18.582;2023-05-13T07:26:11;20.27;39.16
69436;SHT31;56625;54.322;18.582;2023-05-13T07:28:38;20.39;39.18
69436;SHT31;56625;54.322;18.582;2023-05-13T07:31:06;20.48;39.20
69436;SHT31;56625;54.322;18.582;2023-05-13T07:33:34;20.55;39.25
69436;SHT31;56625;54.322;18.582;2023-05-13T07:36:02;20.64;38.19
69436;SHT31;56625;54.322;18.582;2023-05-13T07:38:31;20.67;38.38
69436;SHT31;56625;54.322;18.582;2023-05-13T07:40:58;20.71;37.56
69436;SHT31;56625;54.322;18.582;2023-05-13T07:43:26;20.75;37.16
69436;SHT31;56625;54.322;18.582;2023-05-13T07:45:54;20.86;37.24
69436;SHT31;56625;54.322;18.582;2023-05-13T07:48:22;21.00;36.83
69436;SHT31;56625;54.322;18.582;2023-05-13T07:50:52;21.15;36.27
69436;SHT31;56625;54.322;18.582;2023-05-13T07:53:20;21.25;35.24
69436;SHT31;56625;54.322;18.582;2023-05-13T07:55:47;21.32;35.90
69436;SHT31;56625;54.322;18.582;2023-05-13T07:58:15;21.49;36.38
69436;SHT31;56625;54.322;18.582;2023-05-13T08:00:44;21.68;36.32
69436;SHT31;56625;54.322;18.582;2023-05-13T08:03:12;21.77;36.25
69436;SHT31;56625;54.322;18.582;2023-05-13T08:05:40;21.88;34.82
69436;SHT31;56625;54.322;18.582;2023-05-13T08:08:08;22.00;34.73
69436;SHT31;56625;54.322;18.582;2023-05-13T08:10:36;22.11;33.82
69436;SHT31;56625;54.322;18.582;2023-05-13T08:13:04;22.24;33.83
69436;SHT31;56625;54.322;18.582;2023-05-13T08:15:32;22.46;33.76
69436;SHT31;56625;54.322;18.582;2023-05-13T08:18:00;22.58;32.74
69436;SHT31;56625;54.322;18.582;2023-05-13T08:20:28;22.61;33.29
69436;SHT31;56625;54.322;18.582;2023-05-13T08:22:56;22.68;32.98
69436;SHT31;56625;54.322;18.582;2023-05-13T08:25:25;22.75;32.79
69436;SHT31;56625;54.322;18.582;2023-05-13T08:27:53;22.77;32.12
69436;SHT31;56625;54.322;18.582;2023-05-13T08:30:21;22.67;31.98
69436;SHT31;56625;54.322;18.582;2023-05-13T08:32:48;22.57;32.40
69436;SHT31;56625;54.322;18.582;2023-05-13T08:35:16;22.64;32.93
69436;SHT31;56625;54.322;18.582;2023-05-13T08:37:44;22.73;32.70
69436;SHT31;56625;54.322;18.582;2023-05-13T08:40:12;22.82;32.53
69436;SHT31;56625;54.322;18.582;2023-05-13T08:42:41;22.99;32.60
69436;SHT31;56625;54.322;18.582;2023-05-13T08:45:12;23.05;31.58
69436;SHT31;56625;54.322;18.582;2023-05-13T08:47:49;23.05;31.72
69436;SHT31;56625;54.322;18.582;2023-05-13T08:50:21;23.15;32.40
69436;SHT31;56625;54.322;18.582;2023-05-13T08:52:50;23.28;31.73
69436;SHT31;56625;54.322;18.582;2023-05-13T08:55:20;23.33;31.30
69436;SHT31;56625;54.322;18.582;2023-05-13T08:57:50;23.33;31.35
69436;SHT31;56625;54.322;18.582;2023-05-13T09:00:19;23.23;31.68
69436;SHT31;56625;54.322;18.582;2023-05-13T09:02:48;23.24;31.27
69436;SHT31;56625;54.322;18.582;2023-05-13T09:05:17;23.22;31.33
69436;SHT31;56625;54.322;18.582;2023-05-13T09:07:48;23.25;31.48
69436;SHT31;56625;54.322;18.582;2023-05-13T09:10:16;23.25;31.30
69436;SHT31;56625;54.322;18.582;2023-05-13T09:12:49;23.25;30.98
69436;SHT31;56625;54.322;18.582;2023-05-13T09:15:20;23.21;31.13
69436;SHT31;56625;54.322;18.582;2023-05-13T09:17:54;23.21;30.89
69436;SHT31;56625;54.322;18.582;2023-05-13T09:20:29;23.25;31.12
69436;SHT31;56625;54.322;18.582;2023-05-13T09:23:02;23.35;30.68
69436;SHT31;56625;54.322;18.582;2023-05-13T09:25:33;23.39;30.91
69436;SHT31;56625;54.322;18.582;2023-05-13T09:28:04;23.50;31.26
69436;SHT31;56625;54.322;18.582;2023-05-13T09:30:35;23.57;30.98
69436;SHT31;56625;54.322;18.582;2023-05-13T09:33:16;23.57;30.76
69436;SHT31;56625;54.322;18.582;2023-05-13T09:35:49;23.55;30.98
69436;SHT31;56625;54.322;18.582;2023-05-13T09:38:26;23.70;30.68
69436;SHT31;56625;54.322;18.582;2023-05-13T09:40:58;23.69;29.47
69436;SHT31;56625;54.322;18.582;2023-05-13T09:43:32;23.49;29.53
69436;SHT31;56625;54.322;18.582;2023-05-13T09:46:01;23.43;29.94
69436;SHT31;56625;54.322;18.582;2023-05-13T09:48:31;23.40;30.04
69436;SHT31;56625;54.322;18.582;2023-05-13T09:51:00;23.48;29.98
69436;SHT31;56625;54.322;18.582;2023-05-13T09:53:28;23.46;29.89
69436;SHT31;56625;54.322;18.582;2023-05-13T09:55:58;23.46;30.36
69436;SHT31;56625;54.322;18.582;2023-05-13T09:58:27;23.56;30.70
69436;SHT31;56625;54.322;18.582;2023-05-13T10:00:57;23.75;30.53
69436;SHT31;56625;54.322;18.582;2023-05-13T10:03:26;23.89;30.33
69436;SHT31;56625;54.322;18.582;2023-05-13T10:05:55;23.94;30.05
69436;SHT31;56625;54.322;18.582;2023-05-13T10:08:29;23.96;30.65
69436;SHT31;56625;54.322;18.582;2023-05-13T10:10:57;24.03;30.30
69436;SHT31;56625;54.322;18.582;2023-05-13T10:13:26;24.02;30.16
69436;SHT31;56625;54.322;18.582;2023-05-13T10:15:57;24.05;30.01
69436;SHT31;56625;54.322;18.582;2023-05-13T10:18:26;24.03;29.58
69436;SHT31;56625;54.322;18.582;2023-05-13T10:20:55;23.95;29.82
69436;SHT31;56625;54.322;18.582;2023-05-13T10:23:24;23.92;29.85
69436;SHT31;56625;54.322;18.582;2023-05-13T10:25:53;23.86;29.28
69436;SHT31;56625;54.322;18.582;2023-05-13T10:28:23;23.73;29.36
69436;SHT31;56625;54.322;18.582;2023-05-13T10:30:53;23.74;29.30
69436;SHT31;56625;54.322;18.582;2023-05-13T10:33:21;23.68;29.06
69436;SHT31;56625;54.322;18.582;2023-05-13T10:35:52;23.60;29.01
69436;SHT31;56625;54.322;18.582;2023-05-13T10:45:04;23.58;29.44
69436;SHT31;56625;54.322;18.582;2023-05-13T10:47:35;23.50;29.57
69436;SHT31;56625;54.322;18.582;2023-05-13T10:50:22;23.55;29.57
69436;SHT31;56625;54.322;18.582;2023-05-13T10:52:55;23.67;29.30
69436;SHT31;56625;54.322;18.582;2023-05-13T10:55:25;23.64;28.59
69436;SHT31;56625;54.322;18.582;2023-05-13T10:58:07;23.77;29.17
69436;SHT31;56625;54.322;18.582;2023-05-13T11:00:44;23.58;28.70
69436;SHT31;56625;54.322;18.582;2023-05-13T11:03:13;23.28;28.80
69436;SHT31;56625;54.322;18.582;2023-05-13T11:06:19;23.06;29.10
69436;SHT31;56625;54.322;18.582;2023-05-13T11:08:50;22.81;29.48
69436;SHT31;56625;54.322;18.582;2023-05-13T11:11:23;22.62;29.72
69436;SHT31;56625;54.322;18.582;2023-05-13T11:16:37;22.37;28.83
69436;SHT31;56625;54.322;18.582;2023-05-13T11:19:08;22.18;28.72
69436;SHT31;56625;54.322;18.582;2023-05-13T11:22:09;21.99;29.31
69436;SHT31;56625;54.322;18.582;2023-05-13T11:24:39;21.89;29.50
69436;SHT31;56625;54.322;18.582;2023-05-13T11:27:17;21.91;28.83
69436;SHT31;56625;54.322;18.582;2023-05-13T11:29:51;22.07;28.96
69436;SHT31;56625;54.322;18.582;2023-05-13T11:35:25;22.36;28.69
69436;SHT31;56625;54.322;18.582;2023-05-13T11:37:54;22.57;28.39
69436;SHT31;56625;54.322;18.582;2023-05-13T11:40:27;22.59;27.99
69436;SHT31;56625;54.322;18.582;2023-05-13T11:43:00;22.61;28.33
69436;SHT31;56625;54.322;18.582;2023-05-13T11:45:31;22.77;28.16
69436;SHT31;56625;54.322;18.582;2023-05-13T11:48:17;23.00;28.33
69436;SHT31;56625;54.322;18.582;2023-05-13T11:50:50;23.23;27.71
69436;SHT31;56625;54.322;18.582;2023-05-13T11:53:20;23.45;27.13
69436;SHT31;56625;54.322;18.582;2023-05-13T11:55:49;23.63;27.46
69436;SHT31;56625;54.322;18.582;2023-05-13T11:58:19;23.64;27.40
69436;SHT31;56625;54.322;18.582;2023-05-13T12:00:47;23.40;26.29
69436;SHT31;56625;54.322;18.582;2023-05-13T12:03:16;22.99;26.52
69436;SHT31;56625;54.322;18.582;2023-05-13T12:05:43;22.68;27.61
69436;SHT31;56625;54.322;18.582;2023-05-13T12:08:11;22.41;27.92
69436;SHT31;56625;54.322;18.582;2023-05-13T12:10:43;22.14;28.74
69436;SHT31;56625;54.322;18.582;2023-05-13T12:13:11;21.91;29.27
69436;SHT31;56625;54.322;18.582;2023-05-13T12:15:39;21.77;29.54
69436;SHT31;56625;54.322;18.582;2023-05-13T12:18:08;21.82;29.70
69436;SHT31;56625;54.322;18.582;2023-05-13T12:20:36;22.08;30.07
69436;SHT31;56625;54.322;18.582;2023-05-13T12:23:04;22.16;30.09
69436;SHT31;56625;54.322;18.582;2023-05-13T12:25:36;22.10;29.94
69436;SHT31;56625;54.322;18.582;2023-05-13T12:30:37;21.98;29.86
69436;SHT31;56625;54.322;18.582;2023-05-13T12:33:12;21.98;29.99
69436;SHT31;56625;54.322;18.582;2023-05-13T12:35:43;22.12;30.01
69436;SHT31;56625;54.322;18.582;2023-05-13T12:38:15;22.23;29.91
69436;SHT31;56625;54.322;18.582;2023-05-13T12:40:46;22.44;29.58
69436;SHT31;56625;54.322;18.582;2023-05-13T12:43:16;22.48;29.80
69436;SHT31;56625;54.322;18.582;2023-05-13T12:45:46;22.33;30.23
69436;SHT31;56625;54.322;18.582;2023-05-13T12:48:24;22.13;30.57
69436;SHT31;56625;54.322;18.582;2023-05-13T12:50:52;21.98;30.28
69436;SHT31;56625;54.322;18.582;2023-05-13T12:53:20;21.89;29.89
69436;SHT31;56625;54.322;18.582;2023-05-13T12:55:48;21.81;29.27
69436;SHT31;56625;54.322;18.582;2023-05-13T12:58:16;21.79;29.61
69436;SHT31;56625;54.322;18.582;2023-05-13T13:00:44;21.78;29.71
69436;SHT31;56625;54.322;18.582;2023-05-13T13:03:12;21.72;30.23
69436;SHT31;56625;54.322;18.582;2023-05-13T13:05:40;21.71;30.48
69436;SHT31;56625;54.322;18.582;2023-05-13T13:08:08;21.68;31.12
69436;SHT31;56625;54.322;18.582;2023-05-13T13:10:36;21.63;31.77
69436;SHT31;56625;54.322;18.582;2023-05-13T13:13:04;21.54;32.42
69436;SHT31;56625;54.322;18.582;2023-05-13T13:15:31;21.49;33.00
69436;SHT31;56625;54.322;18.582;2023-05-13T13:17:59;21.47;33.62
69436;SHT31;56625;54.322;18.582;2023-05-13T13:20:27;21.42;34.29
69436;SHT31;56625;54.322;18.582;2023-05-13T13:22:55;21.45;34.84
69436;SHT31;56625;54.322;18.582;2023-05-13T13:25:23;21.47;35.54
69436;SHT31;56625;54.322;18.582;2023-05-13T13:27:51;21.46;36.32
69436;SHT31;56625;54.322;18.582;2023-05-13T13:30:19;21.39;37.02
69436;SHT31;56625;54.322;18.582;2023-05-13T13:32:47;21.27;37.60
69436;SHT31;56625;54.322;18.582;2023-05-13T13:35:15;21.31;37.28
69436;SHT31;56625;54.322;18.582;2023-05-13T13:37:43;21.43;37.01
69436;SHT31;56625;54.322;18.582;2023-05-13T13:40:11;21.52;36.54
69436;SHT31;56625;54.322;18.582;2023-05-13T13:42:40;21.58;36.53
69436;SHT31;56625;54.322;18.582;2023-05-13T13:45:12;21.59;36.35
69436;SHT31;56625;54.322;18.582;2023-05-13T13:47:41;21.61;35.91
69436;SHT31;56625;54.322;18.582;2023-05-13T13:50:09;21.63;34.80
69436;SHT31;56625;54.322;18.582;2023-05-13T13:52:37;21.59;35.34
69436;SHT31;56625;54.322;18.582;2023-05-13T13:55:05;21.72;35.25
69436;SHT31;56625;54.322;18.582;2023-05-13T13:57:34;21.82;34.32
69436;SHT31;56625;54.322;18.582;2023-05-13T14:00:02;21.79;34.54
69436;SHT31;56625;54.322;18.582;2023-05-13T14:02:31;21.76;35.00
69436;SHT31;56625;54.322;18.582;2023-05-13T14:04:59;21.71;35.54
69436;SHT31;56625;54.322;18.582;2023-05-13T14:07:27;21.64;35.97
69436;SHT31;56625;54.322;18.582;2023-05-13T14:09:55;21.60;36.09
69436;SHT31;56625;54.322;18.582;2023-05-13T14:12:27;21.54;36.54
69436;SHT31;56625;54.322;18.582;2023-05-13T14:14:55;21.50;36.91
69436;SHT31;56625;54.322;18.582;2023-05-13T14:17:23;21.41;36.99
69436;SHT31;56625;54.322;18.582;2023-05-13T14:19:51;21.29;37.10
69436;SHT31;56625;54.322;18.582;2023-05-13T14:22:22;21.26;36.65
69436;SHT31;56625;54.322;18.582;2023-05-13T14:24:51;21.25;36.11
69436;SHT31;56625;54.322;18.582;2023-05-13T14:27:19;21.27;36.16
69436;SHT31;56625;54.322;18.582;2023-05-13T14:29:48;21.35;36.30
69436;SHT31;56625;54.322;18.582;2023-05-13T14:32:16;21.51;36.41
69436;SHT31;56625;54.322;18.582;2023-05-13T14:34:44;21.63;35.77
69436;SHT31;56625;54.322;18.582;2023-05-13T14:37:12;21.70;34.20
69436;SHT31;56625;54.322;18.582;2023-05-13T14:39:40;21.71;33.91
69436;SHT31;56625;54.322;18.582;2023-05-13T14:42:08;21.72;33.85
69436;SHT31;56625;54.322;18.582;2023-05-13T14:44:38;21.79;34.28
69436;SHT31;56625;54.322;18.582;2023-05-13T14:47:08;21.94;34.54
69436;SHT31;56625;54.322;18.582;2023-05-13T14:49:37;22.08;34.21
69436;SHT31;56625;54.322;18.582;2023-05-13T14:52:04;22.17;33.79
69436;SHT31;56625;54.322;18.582;2023-05-13T14:54:33;22.19;33.74
69436;SHT31;56625;54.322;18.582;2023-05-13T14:57:03;22.20;33.89
69436;SHT31;56625;54.322;18.582;2023-05-13T14:59:33;22.23;34.01
69436;SHT31;56625;54.322;18.582;2023-05-13T15:02:01;22.26;34.53
69436;SHT31;56625;54.322;18.582;2023-05-13T15:04:30;22.23;34.37
69436;SHT31;56625;54.322;18.582;2023-05-13T15:07:00;22.15;34.59
69436;SHT31;56625;54.322;18.582;2023-05-13T15:09:30;22.08;34.71
69436;SHT31;56625;54.322;18.582;2023-05-13T15:11:58;22.02;35.10
69436;SHT31;56625;54.322;18.582;2023-05-13T15:14:25;22.02;35.44
69436;SHT31;56625;54.322;18.582;2023-05-13T15:16:53;22.09;35.25
69436;SHT31;56625;54.322;18.582;2023-05-13T15:19:21;22.20;34.39
69436;SHT31;56625;54.322;18.582;2023-05-13T15:21:49;22.29;34.24
69436;SHT31;56625;54.322;18.582;2023-05-13T15:24:17;22.33;34.25
69436;SHT31;56625;54.322;18.582;2023-05-13T15:26:46;22.41;34.63
69436;SHT31;56625;54.322;18.582;2023-05-13T15:29:17;22.50;34.35
69436;SHT31;56625;54.322;18.582;2023-05-13T15:31:46;22.48;34.60
69436;SHT31;56625;54.322;18.582;2023-05-13T15:34:17;22.40;34.14
69436;SHT31;56625;54.322;18.582;2023-05-13T15:36:45;22.26;34.38
69436;SHT31;56625;54.322;18.582;2023-05-13T15:39:12;22.27;34.94
69436;SHT31;56625;54.322;18.582;2023-05-13T15:41:41;22.33;35.31
69436;SHT31;56625;54.322;18.582;2023-05-13T15:44:09;22.32;35.46
69436;SHT31;56625;54.322;18.582;2023-05-13T15:46:37;22.12;35.54
69436;SHT31;56625;54.322;18.582;2023-05-13T15:49:05;21.81;36.08
69436;SHT31;56625;54.322;18.582;2023-05-13T15:51:33;21.45;36.56
69436;SHT31;56625;54.322;18.582;2023-05-13T15:54:02;21.08;37.10